sensor_id;sensor_type;location;lat;lon;timestamp;temperature;humidity
23435;DHT22;11890;45.380;11.028;2022-08-19T00:00:12;23.20;99.90
23435;DHT22;11890;45.380;11.028;2022-08-19T00:02:41;23.20;99.90
23435;DHT22;11890;45.380;11.028;2022-08-19T00:05:19;23.20;99.90
23435;DHT22;11890;45.380;11.028;2022-08-19T00:07:47;23.20;99.90
23435;DHT22;11890;45.380;11.028;2022-08-19T00:10:34;23.30;99.90
23435;DHT22;11890;45.380;11.028;2022-08-19T00:13:02;23.30;99.90
23435;DHT22;11890;45.380;11.028;2022-08-19T00:15:41;23.20;99.90
23435;DHT22;11890;45.380;11.028;2022-08-19T00:18:25;23.20;99.90
23435;DHT22;11890;45.380;11.028;2022-08-19T00:20:58;23.20;99.90
23435;DHT22;11890;45.380;11.028;2022-08-19T00:23:46;23.30;99.90
23435;DHT22;11890;45.380;11.028;2022-08-19T00:26:13;23.30;99.90
23435;DHT22;11890;45.380;11.028;2022-08-19T00:28:41;23.30;99.90
23435;DHT22;11890;45.380;11.028;2022-08-19T00:31:10;23.30;99.90
23435;DHT22;11890;45.380;11.028;2022-08-19T00:33:40;23.20;99.90
23435;DHT22;11890;45.380;11.028;2022-08-19T00:36:11;23.20;99.90
23435;DHT22;11890;45.380;11.028;2022-08-19T00:38:39;23.20;99.90
23435;DHT22;11890;45.380;11.028;2022-08-19T00:41:16;23.10;99.90
23435;DHT22;11890;45.380;11.028;2022-08-19T00:46:31;23.00;99.90
23435;DHT22;11890;45.380;11.028;2022-08-19T00:49:10;23.00;99.90
23435;DHT22;11890;45.380;11.028;2022-08-19T00:51:45;23.00;99.90
23435;DHT22;11890;45.380;11.028;2022-08-19T00:54:18;23.00;99.90
23435;DHT22;11890;45.380;11.028;2022-08-19T00:57:04;23.00;99.90
23435;DHT22;11890;45.380;11.028;2022-08-19T00:59:37;23.00;99.90
23435;DHT22;11890;45.380;11.028;2022-08-19T01:02:27;22.90;99.90
23435;DHT22;11890;45.380;11.028;2022-08-19T01:04:55;22.80;99.90
23435;DHT22;11890;45.380;11.028;2022-08-19T01:07:23;22.80;99.90
23435;DHT22;11890;45.380;11.028;2022-08-19T01:09:51;22.70;99.90
23435;DHT22;11890;45.380;11.028;2022-08-19T01:12:19;22.70;99.90
23435;DHT22;11890;45.380;11.028;2022-08-19T01:14:47;22.70;99.90
23435;DHT22;11890;45.380;11.028;2022-08-19T01:17:19;22.70;99.90
23435;DHT22;11890;45.380;11.028;2022-08-19T01:19:50;22.70;99.90
23435;DHT22;11890;45.380;11.028;2022-08-19T01:22:39;22.70;99.90
23435;DHT22;11890;45.380;11.028;2022-08-19T01:25:17;22.70;99.90
23435;DHT22;11890;45.380;11.028;2022-08-19T01:27:49;22.70;99.90
23435;DHT22;11890;45.380;11.028;2022-08-19T01:30:37;22.70;99.90
23435;DHT22;11890;45.380;11.028;2022-08-19T01:33:05;22.70;99.90
23435;DHT22;11890;45.380;11.028;2022-08-19T01:35:35;22.70;99.90
23435;DHT22;11890;45.380;11.028;2022-08-19T01:38:25;22.70;99.90
23435;DHT22;11890;45.380;11.028;2022-08-19T01:40:53;22.70;99.90
23435;DHT22;11890;45.380;11.028;2022-08-19T01:43:20;22.70;99.90
23435;DHT22;11890;45.380;11.028;2022-08-19T01:45:47;22.70;99.90
23435;DHT22;11890;45.380;11.028;2022-08-19T01:48:15;22.70;99.90
23435;DHT22;11890;45.380;11.028;2022-08-19T01:50:45;22.70;99.90
23435;DHT22;11890;45.380;11.028;2022-08-19T01:53:17;22.70;99.90
23435;DHT22;11890;45.380;11.028;2022-08-19T01:55:44;22.70;99.90
23435;DHT22;11890;45.380;11.028;2022-08-19T01:58:36;22.70;99.90
23435;DHT22;11890;45.380;11.028;2022-08-19T02:01:06;22.60;99.90
23435;DHT22;11890;45.380;11.028;2022-08-19T02:03:37;22.60;99.90
23435;DHT22;11890;45.380;11.028;2022-08-19T02:06:05;22.70;99.90
23435;DHT22;11890;45.380;11.028;2022-08-19T02:08:37;22.60;99.90
23435;DHT22;11890;45.380;11.028;2022-08-19T02:11:39;22.70;99.90
23435;DHT22;11890;45.380;11.028;2022-08-19T02:14:12;22.60;99.90
23435;DHT22;11890;45.380;11.028;2022-08-19T02:16:54;22.60;99.90
23435;DHT22;11890;45.380;11.028;2022-08-19T02:19:21;22.60;99.90
23435;DHT22;11890;45.380;11.028;2022-08-19T02:21:52;22.60;99.90
23435;DHT22;11890;45.380;11.028;2022-08-19T02:24:20;22.60;99.90
23435;DHT22;11890;45.380;11.028;2022-08-19T02:26:50;22.60;99.90
23435;DHT22;11890;45.380;11.028;2022-08-19T02:29:18;22.60;99.90
23435;DHT22;11890;45.380;11.028;2022-08-19T02:31:46;22.60;99.90
23435;DHT22;11890;45.380;11.028;2022-08-19T02:34:15;22.60;99.90
23435;DHT22;11890;45.380;11.028;2022-08-19T02:36:44;22.60;99.90
23435;DHT22;11890;45.380;11.028;2022-08-19T02:39:19;22.60;99.90
23435;DHT22;11890;45.380;11.028;2022-08-19T02:41:46;22.60;99.90
23435;DHT22;11890;45.380;11.028;2022-08-19T02:44:13;22.60;99.90
23435;DHT22;11890;45.380;11.028;2022-08-19T02:46:57;22.50;99.90
23435;DHT22;11890;45.380;11.028;2022-08-19T02:49:25;22.50;99.90
23435;DHT22;11890;45.380;11.028;2022-08-19T02:51:52;22.50;99.90
23435;DHT22;11890;45.380;11.028;2022-08-19T02:54:23;22.50;99.90
23435;DHT22;11890;45.380;11.028;2022-08-19T02:56:58;22.50;99.90
23435;DHT22;11890;45.380;11.028;2022-08-19T02:59:25;22.50;99.90
23435;DHT22;11890;45.380;11.028;2022-08-19T03:01:53;22.40;99.90
23435;DHT22;11890;45.380;11.028;2022-08-19T03:04:21;22.40;99.90
23435;DHT22;11890;45.380;11.028;2022-08-19T03:06:49;22.50;99.90
23435;DHT22;11890;45.380;11.028;2022-08-19T03:09:37;22.40;99.90
23435;DHT22;11890;45.380;11.028;2022-08-19T03:12:24;22.50;99.90
23435;DHT22;11890;45.380;11.028;2022-08-19T03:14:52;22.40;99.90
23435;DHT22;11890;45.380;11.028;2022-08-19T03:17:25;22.40;99.90
23435;DHT22;11890;45.380;11.028;2022-08-19T03:19:54;22.40;99.90
23435;DHT22;11890;45.380;11.028;2022-08-19T03:22:23;22.40;99.90
23435;DHT22;11890;45.380;11.028;2022-08-19T03:24:52;22.40;99.90
23435;DHT22;11890;45.380;11.028;2022-08-19T03:27:20;22.40;99.90
23435;DHT22;11890;45.380;11.028;2022-08-19T03:29:48;22.30;99.90
23435;DHT22;11890;45.380;11.028;2022-08-19T03:32:15;22.20;99.90
23435;DHT22;11890;45.380;11.028;2022-08-19T03:34:59;22.20;99.90
23435;DHT22;11890;45.380;11.028;2022-08-19T03:37:27;22.20;99.90
23435;DHT22;11890;45.380;11.028;2022-08-19T03:39:55;22.20;99.90
23435;DHT22;11890;45.380;11.028;2022-08-19T03:42:23;22.20;99.90
23435;DHT22;11890;45.380;11.028;2022-08-19T03:45:10;22.20;99.90
23435;DHT22;11890;45.380;11.028;2022-08-19T03:47:38;22.20;99.90
23435;DHT22;11890;45.380;11.028;2022-08-19T03:50:05;22.20;99.90
23435;DHT22;11890;45.380;11.028;2022-08-19T03:52:33;22.30;99.90
23435;DHT22;11890;45.380;11.028;2022-08-19T03:55:00;22.30;99.90
23435;DHT22;11890;45.380;11.028;2022-08-19T03:57:28;22.20;99.90
23435;DHT22;11890;45.380;11.028;2022-08-19T03:59:58;22.30;99.90
23435;DHT22;11890;45.380;11.028;2022-08-19T04:02:38;22.30;99.90
23435;DHT22;11890;45.380;11.028;2022-08-19T04:05:06;22.40;99.90
23435;DHT22;11890;45.380;11.028;2022-08-19T04:07:35;22.40;99.90
23435;DHT22;11890;45.380;11.028;2022-08-19T04:10:03;22.40;99.90
23435;DHT22;11890;45.380;11.028;2022-08-19T04:12:36;22.40;99.90
23435;DHT22;11890;45.380;11.028;2022-08-19T04:15:04;22.40;99.90
23435;DHT22;11890;45.380;11.028;2022-08-19T04:17:41;22.40;99.90
23435;DHT22;11890;45.380;11.028;2022-08-19T04:20:08;22.40;99.90
23435;DHT22;11890;45.380;11.028;2022-08-19T04:22:36;22.40;99.90
23435;DHT22;11890;45.380;11.028;2022-08-19T04:25:07;22.40;99.90
23435;DHT22;11890;45.380;11.028;2022-08-19T04:27:40;22.40;99.90
23435;DHT22;11890;45.380;11.028;2022-08-19T04:30:14;22.30;99.90
23435;DHT22;11890;45.380;11.028;2022-08-19T04:32:42;22.30;99.90
23435;DHT22;11890;45.380;11.028;2022-08-19T04:35:14;22.20;99.90
23435;DHT22;11890;45.380;11.028;2022-08-19T04:37:51;22.20;99.90
23435;DHT22;11890;45.380;11.028;2022-08-19T04:40:18;22.30;99.90
23435;DHT22;11890;45.380;11.028;2022-08-19T04:43:21;22.30;99.90
23435;DHT22;11890;45.380;11.028;2022-08-19T04:46:04;22.30;99.90
23435;DHT22;11890;45.380;11.028;2022-08-19T04:49:07;22.40;99.90
23435;DHT22;11890;45.380;11.028;2022-08-19T04:51:41;22.30;99.90
23435;DHT22;11890;45.380;11.028;2022-08-19T04:54:10;22.40;99.90
23435;DHT22;11890;45.380;11.028;2022-08-19T04:57:02;22.50;99.90
23435;DHT22;11890;45.380;11.028;2022-08-19T04:59:30;22.60;99.90
23435;DHT22;11890;45.380;11.028;2022-08-19T05:01:59;22.60;99.90
23435;DHT22;11890;45.380;11.028;2022-08-19T05:04:33;22.70;99.90
23435;DHT22;11890;45.380;11.028;2022-08-19T05:07:08;22.80;99.90
23435;DHT22;11890;45.380;11.028;2022-08-19T05:09:44;22.80;99.90
23435;DHT22;11890;45.380;11.028;2022-08-19T05:12:25;22.80;99.90
23435;DHT22;11890;45.380;11.028;2022-08-19T05:15:02;22.80;99.90
23435;DHT22;11890;45.380;11.028;2022-08-19T05:17:38;22.80;99.90
23435;DHT22;11890;45.380;11.028;2022-08-19T05:20:26;22.80;99.90
23435;DHT22;11890;45.380;11.028;2022-08-19T05:23:12;22.80;99.90
23435;DHT22;11890;45.380;11.028;2022-08-19T05:25:50;22.80;99.90
23435;DHT22;11890;45.380;11.028;2022-08-19T05:28:19;22.80;99.90
23435;DHT22;11890;45.380;11.028;2022-08-19T05:30:48;22.80;99.90
23435;DHT22;11890;45.380;11.028;2022-08-19T05:33:19;22.80;99.90
23435;DHT22;11890;45.380;11.028;2022-08-19T05:35:58;22.80;99.90
23435;DHT22;11890;45.380;11.028;2022-08-19T05:38:28;22.80;99.90
23435;DHT22;11890;45.380;11.028;2022-08-19T05:40:57;22.80;99.90
23435;DHT22;11890;45.380;11.028;2022-08-19T05:43:24;22.80;99.90
23435;DHT22;11890;45.380;11.028;2022-08-19T05:45:55;22.80;99.90
23435;DHT22;11890;45.380;11.028;2022-08-19T05:48:28;22.80;99.90
23435;DHT22;11890;45.380;11.028;2022-08-19T05:50:57;22.80;99.90
23435;DHT22;11890;45.380;11.028;2022-08-19T05:53:31;22.80;99.90
23435;DHT22;11890;45.380;11.028;2022-08-19T05:56:18;22.80;99.90
23435;DHT22;11890;45.380;11.028;2022-08-19T05:58:47;22.80;99.90
23435;DHT22;11890;45.380;11.028;2022-08-19T06:01:21;22.80;99.90
23435;DHT22;11890;45.380;11.028;2022-08-19T06:04:03;22.80;99.90
23435;DHT22;11890;45.380;11.028;2022-08-19T06:06:34;22.90;99.90
23435;DHT22;11890;45.380;11.028;2022-08-19T06:09:17;22.90;99.90
23435;DHT22;11890;45.380;11.028;2022-08-19T06:11:49;22.80;99.90
23435;DHT22;11890;45.380;11.028;2022-08-19T06:14:35;22.80;99.90
23435;DHT22;11890;45.380;11.028;2022-08-19T06:17:08;22.80;99.90
23435;DHT22;11890;45.380;11.028;2022-08-19T06:19:47;22.90;99.90
23435;DHT22;11890;45.380;11.028;2022-08-19T06:25:06;22.90;99.90
23435;DHT22;11890;45.380;11.028;2022-08-19T06:27:45;22.90;99.90
23435;DHT22;11890;45.380;11.028;2022-08-19T06:30:36;22.90;99.90
23435;DHT22;11890;45.380;11.028;2022-08-19T06:33:20;22.80;99.90
23435;DHT22;11890;45.380;11.028;2022-08-19T06:35:48;22.80;99.90
23435;DHT22;11890;45.380;11.028;2022-08-19T06:38:15;22.80;99.90
23435;DHT22;11890;45.380;11.028;2022-08-19T06:41:06;22.80;99.90
23435;DHT22;11890;45.380;11.028;2022-08-19T06:43:34;22.80;99.90
23435;DHT22;11890;45.380;11.028;2022-08-19T06:46:13;22.70;99.90
23435;DHT22;11890;45.380;11.028;2022-08-19T06:48:54;22.80;99.90
23435;DHT22;11890;45.380;11.028;2022-08-19T06:51:48;22.80;99.90
23435;DHT22;11890;45.380;11.028;2022-08-19T06:54:45;22.80;99.90
23435;DHT22;11890;45.380;11.028;2022-08-19T06:57:23;22.70;99.90
23435;DHT22;11890;45.380;11.028;2022-08-19T06:59:51;22.80;99.90
23435;DHT22;11890;45.380;11.028;2022-08-19T07:02:19;22.80;99.90
23435;DHT22;11890;45.380;11.028;2022-08-19T07:04:54;22.80;99.90
23435;DHT22;11890;45.380;11.028;2022-08-19T07:07:25;22.80;99.90
23435;DHT22;11890;45.380;11.028;2022-08-19T07:09:52;22.80;99.90
23435;DHT22;11890;45.380;11.028;2022-08-19T07:12:47;22.80;99.90
23435;DHT22;11890;45.380;11.028;2022-08-19T07:15:43;22.80;99.90
23435;DHT22;11890;45.380;11.028;2022-08-19T07:18:13;22.70;99.90
23435;DHT22;11890;45.380;11.028;2022-08-19T07:20:41;22.70;99.90
23435;DHT22;11890;45.380;11.028;2022-08-19T07:23:18;22.70;99.90
23435;DHT22;11890;45.380;11.028;2022-08-19T07:25:49;22.60;99.90
23435;DHT22;11890;45.380;11.028;2022-08-19T07:28:19;22.60;99.90
23435;DHT22;11890;45.380;11.028;2022-08-19T07:30:53;22.60;99.90
23435;DHT22;11890;45.380;11.028;2022-08-19T07:33:21;22.60;99.90
23435;DHT22;11890;45.380;11.028;2022-08-19T07:35:49;22.60;99.90
23435;DHT22;11890;45.380;11.028;2022-08-19T07:38:17;22.50;99.90
23435;DHT22;11890;45.380;11.028;2022-08-19T07:40:44;22.50;99.90
23435;DHT22;11890;45.380;11.028;2022-08-19T07:43:14;22.50;99.90
23435;DHT22;11890;45.380;11.028;2022-08-19T07:45:46;22.50;99.90
23435;DHT22;11890;45.380;11.028;2022-08-19T07:48:14;22.40;99.90
23435;DHT22;11890;45.380;11.028;2022-08-19T07:50:41;22.40;99.90
23435;DHT22;11890;45.380;11.028;2022-08-19T07:53:09;22.40;99.90
23435;DHT22;11890;45.380;11.028;2022-08-19T07:55:36;22.40;99.90
23435;DHT22;11890;45.380;11.028;2022-08-19T07:58:12;22.40;99.90
23435;DHT22;11890;45.380;11.028;2022-08-19T08:00:49;22.30;99.90
23435;DHT22;11890;45.380;11.028;2022-08-19T08:03:20;22.30;99.90
23435;DHT22;11890;45.380;11.028;2022-08-19T08:06:08;22.30;99.90
23435;DHT22;11890;45.380;11.028;2022-08-19T08:08:56;22.30;99.90
23435;DHT22;11890;45.380;11.028;2022-08-19T08:11:44;22.20;99.90
23435;DHT22;11890;45.380;11.028;2022-08-19T08:14:30;22.20;99.90
23435;DHT22;11890;45.380;11.028;2022-08-19T08:17:02;22.20;99.90
23435;DHT22;11890;45.380;11.028;2022-08-19T08:19:37;22.20;99.90
23435;DHT22;11890;45.380;11.028;2022-08-19T08:22:05;22.20;99.90
23435;DHT22;11890;45.380;11.028;2022-08-19T08:24:33;22.20;99.90
23435;DHT22;11890;45.380;11.028;2022-08-19T08:27:06;22.10;99.90
23435;DHT22;11890;45.380;11.028;2022-08-19T08:29:53;22.10;99.90
23435;DHT22;11890;45.380;11.028;2022-08-19T08:32:21;22.10;99.90
23435;DHT22;11890;45.380;11.028;2022-08-19T08:34:52;22.10;99.90
23435;DHT22;11890;45.380;11.028;2022-08-19T08:37:19;22.00;99.90
23435;DHT22;11890;45.380;11.028;2022-08-19T08:39:47;22.00;99.90
23435;DHT22;11890;45.380;11.028;2022-08-19T08:42:49;21.90;99.90
23435;DHT22;11890;45.380;11.028;2022-08-19T08:45:46;21.90;99.90
23435;DHT22;11890;45.380;11.028;2022-08-19T08:48:49;21.80;99.90
23435;DHT22;11890;45.380;11.028;2022-08-19T08:54:50;21.60;99.90
23435;DHT22;11890;45.380;11.028;2022-08-19T08:57:52;21.60;99.90
23435;DHT22;11890;45.380;11.028;2022-08-19T09:00:31;21.50;99.90
23435;DHT22;11890;45.380;11.028;2022-08-19T09:03:30;21.50;99.90
23435;DHT22;11890;45.380;11.028;2022-08-19T09:09:03;21.60;99.90
23435;DHT22;11890;45.380;11.028;2022-08-19T09:17:34;21.70;99.90
23435;DHT22;11890;45.380;11.028;2022-08-19T09:22:36;21.70;99.90
23435;DHT22;11890;45.380;11.028;2022-08-19T09:25:25;21.70;99.90
23435;DHT22;11890;45.380;11.028;2022-08-19T09:28:10;21.70;99.90
23435;DHT22;11890;45.380;11.028;2022-08-19T09:31:17;21.80;99.90
23435;DHT22;11890;45.380;11.028;2022-08-19T09:33:48;21.70;99.90
23435;DHT22;11890;45.380;11.028;2022-08-19T09:36:20;21.70;99.90
23435;DHT22;11890;45.380;11.028;2022-08-19T09:39:11;21.80;99.90
23435;DHT22;11890;45.380;11.028;2022-08-19T09:41:46;21.80;99.90
23435;DHT22;11890;45.380;11.028;2022-08-19T09:44:15;21.80;99.90
23435;DHT22;11890;45.380;11.028;2022-08-19T09:47:12;21.90;99.90
23435;DHT22;11890;45.380;11.028;2022-08-19T09:49:41;21.90;99.90
23435;DHT22;11890;45.380;11.028;2022-08-19T09:52:10;22.00;99.90
23435;DHT22;11890;45.380;11.028;2022-08-19T09:54:39;22.10;99.90
23435;DHT22;11890;45.380;11.028;2022-08-19T09:57:54;22.10;99.90
23435;DHT22;11890;45.380;11.028;2022-08-19T10:00:41;22.20;99.90
23435;DHT22;11890;45.380;11.028;2022-08-19T10:03:08;22.30;99.90
23435;DHT22;11890;45.380;11.028;2022-08-19T10:05:37;22.40;99.90
23435;DHT22;11890;45.380;11.028;2022-08-19T10:09:07;22.50;99.90
23435;DHT22;11890;45.380;11.028;2022-08-19T10:12:05;22.60;99.90
23435;DHT22;11890;45.380;11.028;2022-08-19T10:14:44;22.70;99.90
23435;DHT22;11890;45.380;11.028;2022-08-19T10:17:13;22.70;99.90
23435;DHT22;11890;45.380;11.028;2022-08-19T10:19:46;22.70;99.90
23435;DHT22;11890;45.380;11.028;2022-08-19T10:22:23;22.60;99.90
23435;DHT22;11890;45.380;11.028;2022-08-19T10:24:53;22.60;99.90
23435;DHT22;11890;45.380;11.028;2022-08-19T10:27:23;22.60;99.90
23435;DHT22;11890;45.380;11.028;2022-08-19T10:30:35;22.60;99.90
23435;DHT22;11890;45.380;11.028;2022-08-19T10:33:02;22.60;99.90
23435;DHT22;11890;45.380;11.028;2022-08-19T10:35:34;22.60;99.90
23435;DHT22;11890;45.380;11.028;2022-08-19T10:38:31;22.70;99.90
23435;DHT22;11890;45.380;11.028;2022-08-19T10:41:37;22.80;99.90
23435;DHT22;11890;45.380;11.028;2022-08-19T10:44:12;22.90;99.90
23435;DHT22;11890;45.380;11.028;2022-08-19T10:46:42;22.90;99.90
23435;DHT22;11890;45.380;11.028;2022-08-19T10:49:16;23.00;99.90
23435;DHT22;11890;45.380;11.028;2022-08-19T10:51:43;23.00;99.90
23435;DHT22;11890;45.380;11.028;2022-08-19T10:54:29;23.10;99.90
23435;DHT22;11890;45.380;11.028;2022-08-19T10:57:15;23.20;99.90
23435;DHT22;11890;45.380;11.028;2022-08-19T10:59:43;23.30;99.90
23435;DHT22;11890;45.380;11.028;2022-08-19T11:02:11;23.40;99.90
23435;DHT22;11890;45.380;11.028;2022-08-19T11:04:40;23.50;99.90
23435;DHT22;11890;45.380;11.028;2022-08-19T11:07:08;23.50;99.90
23435;DHT22;11890;45.380;11.028;2022-08-19T11:09:40;23.40;99.90
23435;DHT22;11890;45.380;11.028;2022-08-19T11:12:23;23.40;99.90
23435;DHT22;11890;45.380;11.028;2022-08-19T11:14:51;23.50;99.90
23435;DHT22;11890;45.380;11.028;2022-08-19T11:17:19;23.70;99.90
23435;DHT22;11890;45.380;11.028;2022-08-19T11:19:47;23.80;99.90
23435;DHT22;11890;45.380;11.028;2022-08-19T11:22:16;23.90;99.90
23435;DHT22;11890;45.380;11.028;2022-08-19T11:24:48;24.00;99.90
23435;DHT22;11890;45.380;11.028;2022-08-19T11:27:16;24.10;99.90
23435;DHT22;11890;45.380;11.028;2022-08-19T11:29:43;24.10;99.90
23435;DHT22;11890;45.380;11.028;2022-08-19T11:32:11;24.00;99.90
23435;DHT22;11890;45.380;11.028;2022-08-19T11:34:40;24.00;99.90
23435;DHT22;11890;45.380;11.028;2022-08-19T11:37:10;24.00;99.90
23435;DHT22;11890;45.380;11.028;2022-08-19T11:39:37;23.90;99.90
23435;DHT22;11890;45.380;11.028;2022-08-19T11:42:06;23.90;99.90
23435;DHT22;11890;45.380;11.028;2022-08-19T11:44:54;23.90;99.90
23435;DHT22;11890;45.380;11.028;2022-08-19T11:47:22;23.90;99.90
23435;DHT22;11890;45.380;11.028;2022-08-19T11:49:49;23.90;99.90
23435;DHT22;11890;45.380;11.028;2022-08-19T11:52:17;23.90;99.90
23435;DHT22;11890;45.380;11.028;2022-08-19T11:54:44;23.90;99.90
23435;DHT22;11890;45.380;11.028;2022-08-19T11:57:12;23.90;99.90
23435;DHT22;11890;45.380;11.028;2022-08-19T11:59:42;23.90;99.90
23435;DHT22;11890;45.380;11.028;2022-08-19T12:02:09;24.00;99.90
23435;DHT22;11890;45.380;11.028;2022-08-19T12:04:37;23.90;99.90
23435;DHT22;11890;45.380;11.028;2022-08-19T12:07:05;23.90;99.90
23435;DHT22;11890;45.380;11.028;2022-08-19T12:09:33;23.90;99.90
23435;DHT22;11890;45.380;11.028;2022-08-19T12:12:01;24.00;99.90
23435;DHT22;11890;45.380;11.028;2022-08-19T12:14:38;24.10;99.90
23435;DHT22;11890;45.380;11.028;2022-08-19T12:17:06;24.20;99.90
23435;DHT22;11890;45.380;11.028;2022-08-19T12:19:40;24.30;99.90
23435;DHT22;11890;45.380;11.028;2022-08-19T12:22:07;24.40;99.90
23435;DHT22;11890;45.380;11.028;2022-08-19T12:24:35;24.40;99.90
23435;DHT22;11890;45.380;11.028;2022-08-19T12:27:03;24.40;99.90
23435;DHT22;11890;45.380;11.028;2022-08-19T12:29:30;24.50;99.90
23435;DHT22;11890;45.380;11.028;2022-08-19T12:31:58;24.40;99.90
23435;DHT22;11890;45.380;11.028;2022-08-19T12:34:43;24.40;99.90
23435;DHT22;11890;45.380;11.028;2022-08-19T12:37:11;24.30;99.90
23435;DHT22;11890;45.380;11.028;2022-08-19T12:39:41;24.30;99.90
23435;DHT22;11890;45.380;11.028;2022-08-19T12:42:14;24.30;99.90
23435;DHT22;11890;45.380;11.028;2022-08-19T12:44:42;24.30;99.90
23435;DHT22;11890;45.380;11.028;2022-08-19T12:47:12;24.30;99.90
23435;DHT22;11890;45.380;11.028;2022-08-19T12:50:06;24.20;99.90
23435;DHT22;11890;45.380;11.028;2022-08-19T12:52:37;24.30;99.90
23435;DHT22;11890;45.380;11.028;2022-08-19T12:55:06;24.30;99.90
23435;DHT22;11890;45.380;11.028;2022-08-19T12:57:34;24.30;99.90
23435;DHT22;11890;45.380;11.028;2022-08-19T13:00:12;24.30;99.90
23435;DHT22;11890;45.380;11.028;2022-08-19T13:02:44;24.30;99.90
23435;DHT22;11890;45.380;11.028;2022-08-19T13:05:15;24.30;99.90
23435;DHT22;11890;45.380;11.028;2022-08-19T13:07:43;24.30;99.90
23435;DHT22;11890;45.380;11.028;2022-08-19T13:10:21;24.30;99.90
23435;DHT22;11890;45.380;11.028;2022-08-19T13:12:52;24.40;99.90
23435;DHT22;11890;45.380;11.028;2022-08-19T13:15:23;24.50;99.90
23435;DHT22;11890;45.380;11.028;2022-08-19T13:17:53;24.50;99.90
23435;DHT22;11890;45.380;11.028;2022-08-19T13:20:37;24.60;99.90
23435;DHT22;11890;45.380;11.028;2022-08-19T13:23:04;24.80;99.90
23435;DHT22;11890;45.380;11.028;2022-08-19T13:25:31;24.90;99.90
23435;DHT22;11890;45.380;11.028;2022-08-19T13:28:01;25.10;99.90
23435;DHT22;11890;45.380;11.028;2022-08-19T13:30:30;25.20;99.90
23435;DHT22;11890;45.380;11.028;2022-08-19T13:33:17;25.30;99.90
23435;DHT22;11890;45.380;11.028;2022-08-19T13:35:58;25.40;99.90
23435;DHT22;11890;45.380;11.028;2022-08-19T13:38:28;25.50;99.90
23435;DHT22;11890;45.380;11.028;2022-08-19T13:40:55;25.60;99.90
23435;DHT22;11890;45.380;11.028;2022-08-19T13:43:26;25.70;99.90
23435;DHT22;11890;45.380;11.028;2022-08-19T13:45:54;25.80;99.90
23435;DHT22;11890;45.380;11.028;2022-08-19T13:48:26;26.00;99.90
23435;DHT22;11890;45.380;11.028;2022-08-19T13:50:54;26.00;99.90
23435;DHT22;11890;45.380;11.028;2022-08-19T13:53:22;26.10;99.90
23435;DHT22;11890;45.380;11.028;2022-08-19T13:55:49;26.20;99.90
23435;DHT22;11890;45.380;11.028;2022-08-19T13:58:25;26.20;99.90
23435;DHT22;11890;45.380;11.028;2022-08-19T14:00:58;26.20;99.90
23435;DHT22;11890;45.380;11.028;2022-08-19T14:03:28;26.30;99.90
23435;DHT22;11890;45.380;11.028;2022-08-19T14:05:56;26.40;99.90
23435;DHT22;11890;45.380;11.028;2022-08-19T14:08:23;26.40;99.90
23435;DHT22;11890;45.380;11.028;2022-08-19T14:10:51;26.40;99.90
23435;DHT22;11890;45.380;11.028;2022-08-19T14:13:21;26.40;99.90
23435;DHT22;11890;45.380;11.028;2022-08-19T14:15:50;26.30;99.90
23435;DHT22;11890;45.380;11.028;2022-08-19T14:18:18;26.30;99.90
23435;DHT22;11890;45.380;11.028;2022-08-19T14:20:47;26.20;99.90
23435;DHT22;11890;45.380;11.028;2022-08-19T14:23:17;26.10;99.90
23435;DHT22;11890;45.380;11.028;2022-08-19T14:25:44;26.10;99.90
23435;DHT22;11890;45.380;11.028;2022-08-19T14:28:12;26.10;99.90
23435;DHT22;11890;45.380;11.028;2022-08-19T14:30:40;26.10;99.90
23435;DHT22;11890;45.380;11.028;2022-08-19T14:33:07;26.20;99.90
23435;DHT22;11890;45.380;11.028;2022-08-19T14:35:36;26.20;99.90
23435;DHT22;11890;45.380;11.028;2022-08-19T14:38:04;26.20;99.90
23435;DHT22;11890;45.380;11.028;2022-08-19T14:40:39;26.20;99.90
23435;DHT22;11890;45.380;11.028;2022-08-19T14:43:07;26.20;99.90
23435;DHT22;11890;45.380;11.028;2022-08-19T14:45:36;26.20;99.90
23435;DHT22;11890;45.380;11.028;2022-08-19T14:48:08;26.20;99.90
23435;DHT22;11890;45.380;11.028;2022-08-19T14:50:45;26.20;99.90
23435;DHT22;11890;45.380;11.028;2022-08-19T14:53:15;26.20;99.90
23435;DHT22;11890;45.380;11.028;2022-08-19T14:55:44;26.20;99.90
23435;DHT22;11890;45.380;11.028;2022-08-19T14:58:13;26.20;99.90
23435;DHT22;11890;45.380;11.028;2022-08-19T15:00:58;26.20;99.90
23435;DHT22;11890;45.380;11.028;2022-08-19T15:03:27;26.10;99.90
23435;DHT22;11890;45.380;11.028;2022-08-19T15:05:56;26.10;99.90
23435;DHT22;11890;45.380;11.028;2022-08-19T15:08:26;26.10;99.90
23435;DHT22;11890;45.380;11.028;2022-08-19T15:10:54;26.10;99.90
23435;DHT22;11890;45.380;11.028;2022-08-19T15:13:23;26.20;99.90
23435;DHT22;11890;45.380;11.028;2022-08-19T15:15:52;26.20;99.90
23435;DHT22;11890;45.380;11.028;2022-08-19T15:18:20;26.10;99.90
23435;DHT22;11890;45.380;11.028;2022-08-19T15:20:48;26.10;99.90
23435;DHT22;11890;45.380;11.028;2022-08-19T15:23:17;26.10;99.90
23435;DHT22;11890;45.380;11.028;2022-08-19T15:25:46;26.10;99.90
23435;DHT22;11890;45.380;11.028;2022-08-19T15:28:16;26.20;99.90
23435;DHT22;11890;45.380;11.028;2022-08-19T15:30:44;26.20;99.90
23435;DHT22;11890;45.380;11.028;2022-08-19T15:33:13;26.20;99.90
23435;DHT22;11890;45.380;11.028;2022-08-19T15:35:42;26.10;99.90
23435;DHT22;11890;45.380;11.028;2022-08-19T15:38:11;26.10;99.90
23435;DHT22;11890;45.380;11.028;2022-08-19T15:40:43;26.10;99.90
23435;DHT22;11890;45.380;11.028;2022-08-19T15:43:11;26.10;99.90
23435;DHT22;11890;45.380;11.028;2022-08-19T15:45:39;26.00;99.90
23435;DHT22;11890;45.380;11.028;2022-08-19T15:48:13;26.00;99.90
23435;DHT22;11890;45.380;11.028;2022-08-19T15:50:40;26.00;99.90
23435;DHT22;11890;45.380;11.028;2022-08-19T15:53:10;25.90;99.90
23435;DHT22;11890;45.380;11.028;2022-08-19T15:55:43;26.00;99.90
23435;DHT22;11890;45.380;11.028;2022-08-19T15:58:13;26.00;99.90
23435;DHT22;11890;45.380;11.028;2022-08-19T16:01:04;26.00;99.90
23435;DHT22;11890;45.380;11.028;2022-08-19T16:03:55;26.00;99.90
23435;DHT22;11890;45.380;11.028;2022-08-19T16:06:51;25.90;99.90
23435;DHT22;11890;45.380;11.028;2022-08-19T16:09:23;26.00;99.90
23435;DHT22;11890;45.380;11.028;2022-08-19T16:11:59;26.00;99.90
23435;DHT22;11890;45.380;11.028;2022-08-19T16:14:31;25.90;99.90
23435;DHT22;11890;45.380;11.028;2022-08-19T16:17:01;25.90;99.90